sensor_id;sensor_type;location;lat;lon;timestamp;P1;durP1;ratioP1;P2;durP2;ratioP2
24409;SDS011;12543;53.364;-1.504;2022-12-29T00:00:55;14.55;;;2.42;;
24409;SDS011;12543;53.364;-1.504;2022-12-29T00:03:26;14.27;;;2.47;;
24409;SDS011;12543;53.364;-1.504;2022-12-29T00:05:54;12.23;;;2.28;;
24409;SDS011;12543;53.364;-1.504;2022-12-29T00:11:10;15.52;;;2.95;;
24409;SDS011;12543;53.364;-1.504;2022-12-29T00:13:39;11.85;;;2.17;;
24409;SDS011;12543;53.364;-1.504;2022-12-29T00:16:29;9.77;;;1.92;;
24409;SDS011;12543;53.364;-1.504;2022-12-29T00:21:24;18.38;;;2.40;;
24409;SDS011;12543;53.364;-1.504;2022-12-29T00:24:28;14.70;;;2.92;;
24409;SDS011;12543;53.364;-1.504;2022-12-29T00:27:13;13.55;;;2.60;;
24409;SDS011;12543;53.364;-1.504;2022-12-29T00:29:59;13.95;;;2.70;;
24409;SDS011;12543;53.364;-1.504;2022-12-29T00:32:44;11.55;;;2.80;;
24409;SDS011;12543;53.364;-1.504;2022-12-29T00:35:35;15.13;;;2.40;;
24409;SDS011;12543;53.364;-1.504;2022-12-29T00:38:06;15.20;;;2.53;;
24409;SDS011;12543;53.364;-1.504;2022-12-29T00:40:53;17.77;;;2.75;;
24409;SDS011;12543;53.364;-1.504;2022-12-29T00:43:39;12.90;;;1.90;;
24409;SDS011;12543;53.364;-1.504;2022-12-29T00:46:26;10.88;;;2.13;;
24409;SDS011;12543;53.364;-1.504;2022-12-29T00:48:54;13.32;;;2.50;;
24409;SDS011;12543;53.364;-1.504;2022-12-29T00:51:40;13.23;;;2.25;;
24409;SDS011;12543;53.364;-1.504;2022-12-29T00:54:07;13.75;;;2.20;;
24409;SDS011;12543;53.364;-1.504;2022-12-29T00:56:34;14.68;;;2.67;;
24409;SDS011;12543;53.364;-1.504;2022-12-29T00:59:02;13.27;;;2.25;;
24409;SDS011;12543;53.364;-1.504;2022-12-29T01:01:30;19.60;;;3.60;;
24409;SDS011;12543;53.364;-1.504;2022-12-29T01:03:59;13.40;;;2.70;;
24409;SDS011;12543;53.364;-1.504;2022-12-29T01:06:30;17.52;;;2.50;;
24409;SDS011;12543;53.364;-1.504;2022-12-29T01:08:58;17.58;;;3.17;;
24409;SDS011;12543;53.364;-1.504;2022-12-29T01:11:44;16.15;;;2.63;;
24409;SDS011;12543;53.364;-1.504;2022-12-29T01:14:11;12.70;;;2.67;;
24409;SDS011;12543;53.364;-1.504;2022-12-29T01:16:39;13.40;;;3.03;;
24409;SDS011;12543;53.364;-1.504;2022-12-29T01:19:06;14.15;;;2.80;;
24409;SDS011;12543;53.364;-1.504;2022-12-29T01:21:33;14.40;;;2.60;;
24409;SDS011;12543;53.364;-1.504;2022-12-29T01:24:00;14.60;;;2.30;;
24409;SDS011;12543;53.364;-1.504;2022-12-29T01:26:27;13.10;;;2.80;;
24409;SDS011;12543;53.364;-1.504;2022-12-29T01:28:54;11.85;;;2.10;;
24409;SDS011;12543;53.364;-1.504;2022-12-29T01:31:21;16.25;;;2.22;;
24409;SDS011;12543;53.364;-1.504;2022-12-29T01:33:49;11.85;;;2.42;;
24409;SDS011;12543;53.364;-1.504;2022-12-29T01:36:16;15.68;;;2.72;;
24409;SDS011;12543;53.364;-1.504;2022-12-29T01:38:44;18.83;;;2.53;;
24409;SDS011;12543;53.364;-1.504;2022-12-29T01:41:12;13.32;;;2.22;;
24409;SDS011;12543;53.364;-1.504;2022-12-29T01:48:47;14.80;;;2.45;;
24409;SDS011;12543;53.364;-1.504;2022-12-29T01:51:16;10.57;;;2.08;;
24409;SDS011;12543;53.364;-1.504;2022-12-29T01:53:44;10.40;;;2.05;;
24409;SDS011;12543;53.364;-1.504;2022-12-29T01:56:12;10.50;;;1.95;;
24409;SDS011;12543;53.364;-1.504;2022-12-29T01:58:44;10.65;;;1.70;;
24409;SDS011;12543;53.364;-1.504;2022-12-29T02:01:15;13.13;;;2.08;;
24409;SDS011;12543;53.364;-1.504;2022-12-29T02:03:44;7.80;;;1.60;;
24409;SDS011;12543;53.364;-1.504;2022-12-29T02:06:22;14.38;;;2.05;;
24409;SDS011;12543;53.364;-1.504;2022-12-29T02:08:54;11.88;;;1.98;;
24409;SDS011;12543;53.364;-1.504;2022-12-29T02:11:23;18.35;;;2.72;;
24409;SDS011;12543;53.364;-1.504;2022-12-29T02:13:52;9.05;;;2.13;;
24409;SDS011;12543;53.364;-1.504;2022-12-29T02:16:29;11.73;;;2.03;;
24409;SDS011;12543;53.364;-1.504;2022-12-29T02:22:00;7.93;;;1.63;;
24409;SDS011;12543;53.364;-1.504;2022-12-29T02:42:10;1.08;;;0.52;;
24409;SDS011;12543;53.364;-1.504;2022-12-29T02:45:02;1.02;;;0.60;;
24409;SDS011;12543;53.364;-1.504;2022-12-29T02:47:51;1.25;;;0.80;;
24409;SDS011;12543;53.364;-1.504;2022-12-29T02:50:38;2.47;;;0.68;;
24409;SDS011;12543;53.364;-1.504;2022-12-29T02:53:11;0.60;;;0.50;;
24409;SDS011;12543;53.364;-1.504;2022-12-29T02:55:48;0.50;;;0.35;;
24409;SDS011;12543;53.364;-1.504;2022-12-29T02:58:17;0.20;;;0.20;;
24409;SDS011;12543;53.364;-1.504;2022-12-29T03:00:53;0.35;;;0.20;;
24409;SDS011;12543;53.364;-1.504;2022-12-29T03:12:48;1.48;;;0.40;;
24409;SDS011;12543;53.364;-1.504;2022-12-29T03:15:21;0.98;;;0.43;;
24409;SDS011;12543;53.364;-1.504;2022-12-29T03:18:14;0.75;;;0.40;;
24409;SDS011;12543;53.364;-1.504;2022-12-29T03:20:49;1.75;;;0.50;;
24409;SDS011;12543;53.364;-1.504;2022-12-29T03:23:21;1.38;;;0.60;;
24409;SDS011;12543;53.364;-1.504;2022-12-29T03:25:53;2.95;;;0.85;;
24409;SDS011;12543;53.364;-1.504;2022-12-29T03:28:29;1.98;;;0.60;;
24409;SDS011;12543;53.364;-1.504;2022-12-29T03:31:04;2.00;;;0.60;;
24409;SDS011;12543;53.364;-1.504;2022-12-29T03:33:34;1.00;;;0.60;;
24409;SDS011;12543;53.364;-1.504;2022-12-29T03:36:04;0.40;;;0.40;;
24409;SDS011;12543;53.364;-1.504;2022-12-29T03:38:47;3.28;;;0.60;;
24409;SDS011;12543;53.364;-1.504;2022-12-29T03:41:35;1.33;;;0.77;;
24409;SDS011;12543;53.364;-1.504;2022-12-29T03:44:07;1.85;;;0.70;;
24409;SDS011;12543;53.364;-1.504;2022-12-29T03:46:34;2.58;;;0.98;;
24409;SDS011;12543;53.364;-1.504;2022-12-29T03:49:02;2.95;;;0.90;;
24409;SDS011;12543;53.364;-1.504;2022-12-29T03:51:29;2.22;;;0.73;;
24409;SDS011;12543;53.364;-1.504;2022-12-29T03:53:57;1.90;;;1.05;;
24409;SDS011;12543;53.364;-1.504;2022-12-29T03:56:24;1.65;;;0.90;;
24409;SDS011;12543;53.364;-1.504;2022-12-29T03:58:52;3.05;;;1.00;;
24409;SDS011;12543;53.364;-1.504;2022-12-29T04:01:29;1.10;;;0.90;;
24409;SDS011;12543;53.364;-1.504;2022-12-29T04:03:56;0.95;;;0.75;;
24409;SDS011;12543;53.364;-1.504;2022-12-29T04:06:24;3.33;;;1.00;;
24409;SDS011;12543;53.364;-1.504;2022-12-29T04:09:00;1.55;;;0.90;;
24409;SDS011;12543;53.364;-1.504;2022-12-29T04:11:32;2.33;;;0.95;;
24409;SDS011;12543;53.364;-1.504;2022-12-29T04:14:02;2.55;;;1.10;;
24409;SDS011;12543;53.364;-1.504;2022-12-29T04:16:31;3.05;;;1.00;;
24409;SDS011;12543;53.364;-1.504;2022-12-29T04:19:05;4.03;;;0.90;;
24409;SDS011;12543;53.364;-1.504;2022-12-29T04:21:35;3.03;;;1.10;;
24409;SDS011;12543;53.364;-1.504;2022-12-29T04:24:02;2.47;;;1.00;;
24409;SDS011;12543;53.364;-1.504;2022-12-29T04:26:37;3.10;;;0.70;;
24409;SDS011;12543;53.364;-1.504;2022-12-29T04:29:27;0.85;;;0.70;;
24409;SDS011;12543;53.364;-1.504;2022-12-29T04:32:21;1.45;;;0.80;;
24409;SDS011;12543;53.364;-1.504;2022-12-29T04:34:50;3.40;;;1.20;;
24409;SDS011;12543;53.364;-1.504;2022-12-29T04:37:17;3.47;;;1.25;;
24409;SDS011;12543;53.364;-1.504;2022-12-29T04:39:45;3.85;;;1.35;;
24409;SDS011;12543;53.364;-1.504;2022-12-29T04:42:12;1.88;;;1.25;;
24409;SDS011;12543;53.364;-1.504;2022-12-29T04:44:41;3.20;;;1.13;;
24409;SDS011;12543;53.364;-1.504;2022-12-29T04:47:29;1.88;;;1.40;;
24409;SDS011;12543;53.364;-1.504;2022-12-29T04:50:16;2.55;;;1.83;;
24409;SDS011;12543;53.364;-1.504;2022-12-29T04:52:52;2.17;;;1.90;;
24409;SDS011;12543;53.364;-1.504;2022-12-29T04:55:20;3.45;;;2.00;;
24409;SDS011;12543;53.364;-1.504;2022-12-29T04:57:47;3.30;;;2.13;;
24409;SDS011;12543;53.364;-1.504;2022-12-29T05:00:17;3.53;;;2.60;;
24409;SDS011;12543;53.364;-1.504;2022-12-29T05:02:45;3.38;;;3.00;;
24409;SDS011;12543;53.364;-1.504;2022-12-29T05:05:13;3.03;;;2.80;;
24409;SDS011;12543;53.364;-1.504;2022-12-29T05:07:45;3.35;;;3.05;;
24409;SDS011;12543;53.364;-1.504;2022-12-29T05:10:13;4.00;;;3.05;;
24409;SDS011;12543;53.364;-1.504;2022-12-29T05:12:42;5.22;;;3.28;;
24409;SDS011;12543;53.364;-1.504;2022-12-29T05:15:11;5.50;;;3.08;;
24409;SDS011;12543;53.364;-1.504;2022-12-29T05:17:41;4.80;;;3.05;;
24409;SDS011;12543;53.364;-1.504;2022-12-29T05:20:08;4.65;;;3.10;;
24409;SDS011;12543;53.364;-1.504;2022-12-29T05:22:36;5.90;;;2.90;;
24409;SDS011;12543;53.364;-1.504;2022-12-29T05:27:43;4.25;;;2.55;;
24409;SDS011;12543;53.364;-1.504;2022-12-29T05:30:39;2.85;;;1.90;;
24409;SDS011;12543;53.364;-1.504;2022-12-29T05:33:06;4.85;;;2.88;;
24409;SDS011;12543;53.364;-1.504;2022-12-29T05:35:33;2.47;;;2.00;;
24409;SDS011;12543;53.364;-1.504;2022-12-29T05:38:01;5.82;;;2.17;;
24409;SDS011;12543;53.364;-1.504;2022-12-29T05:40:29;6.13;;;2.10;;
24409;SDS011;12543;53.364;-1.504;2022-12-29T05:43:00;5.10;;;1.92;;
24409;SDS011;12543;53.364;-1.504;2022-12-29T05:45:40;2.85;;;1.50;;
24409;SDS011;12543;53.364;-1.504;2022-12-29T05:48:25;4.95;;;1.48;;
24409;SDS011;12543;53.364;-1.504;2022-12-29T05:51:27;3.22;;;1.27;;
24409;SDS011;12543;53.364;-1.504;2022-12-29T05:53:54;2.95;;;1.00;;
24409;SDS011;12543;53.364;-1.504;2022-12-29T05:56:22;3.73;;;1.20;;
24409;SDS011;12543;53.364;-1.504;2022-12-29T05:58:54;6.10;;;1.33;;
24409;SDS011;12543;53.364;-1.504;2022-12-29T06:01:23;3.72;;;1.20;;
24409;SDS011;12543;53.364;-1.504;2022-12-29T06:03:50;7.15;;;1.17;;
24409;SDS011;12543;53.364;-1.504;2022-12-29T06:06:19;3.80;;;0.95;;
24409;SDS011;12543;53.364;-1.504;2022-12-29T06:08:46;4.35;;;1.30;;
24409;SDS011;12543;53.364;-1.504;2022-12-29T06:11:13;4.45;;;1.10;;
24409;SDS011;12543;53.364;-1.504;2022-12-29T06:13:47;3.55;;;0.75;;
24409;SDS011;12543;53.364;-1.504;2022-12-29T06:16:15;5.70;;;0.93;;
24409;SDS011;12543;53.364;-1.504;2022-12-29T06:18:43;5.95;;;1.08;;
24409;SDS011;12543;53.364;-1.504;2022-12-29T06:21:10;3.08;;;0.85;;
24409;SDS011;12543;53.364;-1.504;2022-12-29T06:23:37;4.13;;;0.80;;
24409;SDS011;12543;53.364;-1.504;2022-12-29T06:26:04;3.33;;;0.88;;
24409;SDS011;12543;53.364;-1.504;2022-12-29T06:28:31;2.95;;;0.70;;
24409;SDS011;12543;53.364;-1.504;2022-12-29T06:30:59;4.40;;;0.80;;
24409;SDS011;12543;53.364;-1.504;2022-12-29T06:33:29;3.58;;;0.80;;
24409;SDS011;12543;53.364;-1.504;2022-12-29T06:35:57;4.20;;;0.95;;
24409;SDS011;12543;53.364;-1.504;2022-12-29T06:38:24;3.58;;;0.90;;
24409;SDS011;12543;53.364;-1.504;2022-12-29T06:40:51;3.75;;;0.80;;
24409;SDS011;12543;53.364;-1.504;2022-12-29T06:43:19;4.65;;;0.77;;
24409;SDS011;12543;53.364;-1.504;2022-12-29T06:46:18;8.23;;;1.52;;
24409;SDS011;12543;53.364;-1.504;2022-12-29T06:48:45;4.15;;;1.08;;
24409;SDS011;12543;53.364;-1.504;2022-12-29T06:51:13;3.40;;;0.80;;
24409;SDS011;12543;53.364;-1.504;2022-12-29T06:53:40;6.30;;;1.00;;
24409;SDS011;12543;53.364;-1.504;2022-12-29T06:56:08;3.65;;;0.90;;
24409;SDS011;12543;53.364;-1.504;2022-12-29T06:58:35;2.92;;;0.60;;
24409;SDS011;12543;53.364;-1.504;2022-12-29T07:01:03;2.88;;;0.70;;
24409;SDS011;12543;53.364;-1.504;2022-12-29T07:03:30;7.43;;;0.80;;
24409;SDS011;12543;53.364;-1.504;2022-12-29T07:05:58;4.28;;;0.90;;
24409;SDS011;12543;53.364;-1.504;2022-12-29T07:08:25;5.82;;;0.65;;
24409;SDS011;12543;53.364;-1.504;2022-12-29T07:10:53;2.35;;;0.77;;
24409;SDS011;12543;53.364;-1.504;2022-12-29T07:13:23;5.38;;;0.70;;
24409;SDS011;12543;53.364;-1.504;2022-12-29T07:15:50;1.60;;;0.60;;
24409;SDS011;12543;53.364;-1.504;2022-12-29T07:18:18;5.32;;;0.93;;
24409;SDS011;12543;53.364;-1.504;2022-12-29T07:20:45;5.97;;;1.00;;
24409;SDS011;12543;53.364;-1.504;2022-12-29T07:23:13;5.97;;;1.00;;
24409;SDS011;12543;53.364;-1.504;2022-12-29T07:25:40;5.43;;;0.90;;
24409;SDS011;12543;53.364;-1.504;2022-12-29T07:28:07;6.13;;;1.05;;
24409;SDS011;12543;53.364;-1.504;2022-12-29T07:30:36;6.32;;;1.15;;
24409;SDS011;12543;53.364;-1.504;2022-12-29T07:33:05;4.78;;;1.10;;
24409;SDS011;12543;53.364;-1.504;2022-12-29T07:35:33;7.72;;;1.25;;
24409;SDS011;12543;53.364;-1.504;2022-12-29T07:38:01;6.05;;;1.30;;
24409;SDS011;12543;53.364;-1.504;2022-12-29T07:40:31;4.40;;;0.77;;
24409;SDS011;12543;53.364;-1.504;2022-12-29T07:42:58;6.00;;;1.08;;
24409;SDS011;12543;53.364;-1.504;2022-12-29T07:45:32;4.28;;;0.82;;
24409;SDS011;12543;53.364;-1.504;2022-12-29T07:48:07;4.22;;;0.65;;
24409;SDS011;12543;53.364;-1.504;2022-12-29T07:50:35;8.07;;;1.10;;
24409;SDS011;12543;53.364;-1.504;2022-12-29T07:53:02;8.40;;;1.10;;
24409;SDS011;12543;53.364;-1.504;2022-12-29T07:55:30;5.20;;;0.90;;
24409;SDS011;12543;53.364;-1.504;2022-12-29T07:57:57;4.78;;;1.15;;
24409;SDS011;12543;53.364;-1.504;2022-12-29T08:00:25;4.43;;;0.80;;
24409;SDS011;12543;53.364;-1.504;2022-12-29T08:02:52;8.77;;;1.10;;
24409;SDS011;12543;53.364;-1.504;2022-12-29T08:05:20;6.87;;;1.97;;
24409;SDS011;12543;53.364;-1.504;2022-12-29T08:07:47;5.18;;;1.45;;
24409;SDS011;12543;53.364;-1.504;2022-12-29T08:10:15;4.03;;;1.02;;
24409;SDS011;12543;53.364;-1.504;2022-12-29T08:12:43;6.78;;;1.17;;
24409;SDS011;12543;53.364;-1.504;2022-12-29T08:15:11;3.58;;;1.20;;
24409;SDS011;12543;53.364;-1.504;2022-12-29T08:17:38;4.75;;;1.48;;
24409;SDS011;12543;53.364;-1.504;2022-12-29T08:20:06;5.43;;;1.20;;
24409;SDS011;12543;53.364;-1.504;2022-12-29T08:22:34;4.70;;;1.17;;
24409;SDS011;12543;53.364;-1.504;2022-12-29T08:25:01;4.22;;;1.10;;
24409;SDS011;12543;53.364;-1.504;2022-12-29T08:27:29;2.63;;;1.20;;
24409;SDS011;12543;53.364;-1.504;2022-12-29T08:29:56;7.40;;;1.13;;
24409;SDS011;12543;53.364;-1.504;2022-12-29T08:32:27;4.30;;;1.30;;
24409;SDS011;12543;53.364;-1.504;2022-12-29T08:34:55;2.20;;;0.63;;
24409;SDS011;12543;53.364;-1.504;2022-12-29T08:37:22;9.95;;;1.08;;
24409;SDS011;12543;53.364;-1.504;2022-12-29T08:39:56;5.88;;;1.10;;
24409;SDS011;12543;53.364;-1.504;2022-12-29T08:42:25;5.13;;;0.90;;
24409;SDS011;12543;53.364;-1.504;2022-12-29T08:44:58;5.18;;;0.90;;
24409;SDS011;12543;53.364;-1.504;2022-12-29T08:47:25;7.00;;;1.00;;
24409;SDS011;12543;53.364;-1.504;2022-12-29T08:49:53;4.50;;;1.17;;
24409;SDS011;12543;53.364;-1.504;2022-12-29T08:52:21;7.97;;;1.25;;
24409;SDS011;12543;53.364;-1.504;2022-12-29T08:54:49;7.95;;;1.45;;
24409;SDS011;12543;53.364;-1.504;2022-12-29T08:57:17;9.23;;;1.40;;
24409;SDS011;12543;53.364;-1.504;2022-12-29T09:00:07;8.52;;;1.25;;
24409;SDS011;12543;53.364;-1.504;2022-12-29T09:02:37;8.05;;;1.60;;
24409;SDS011;12543;53.364;-1.504;2022-12-29T09:05:05;5.83;;;1.00;;
24409;SDS011;12543;53.364;-1.504;2022-12-29T09:07:33;5.80;;;1.15;;
24409;SDS011;12543;53.364;-1.504;2022-12-29T09:10:00;5.55;;;1.17;;
24409;SDS011;12543;53.364;-1.504;2022-12-29T09:12:28;6.30;;;1.10;;
24409;SDS011;12543;53.364;-1.504;2022-12-29T09:15:02;4.80;;;1.10;;
24409;SDS011;12543;53.364;-1.504;2022-12-29T09:17:30;4.75;;;1.00;;
24409;SDS011;12543;53.364;-1.504;2022-12-29T09:20:11;8.10;;;1.73;;
24409;SDS011;12543;53.364;-1.504;2022-12-29T09:22:40;4.82;;;0.80;;
24409;SDS011;12543;53.364;-1.504;2022-12-29T09:25:08;6.00;;;1.20;;
24409;SDS011;12543;53.364;-1.504;2022-12-29T09:27:36;6.97;;;1.15;;
24409;SDS011;12543;53.364;-1.504;2022-12-29T09:30:05;9.23;;;1.30;;
24409;SDS011;12543;53.364;-1.504;2022-12-29T09:32:34;6.95;;;1.60;;
24409;SDS011;12543;53.364;-1.504;2022-12-29T09:35:10;6.10;;;1.17;;
24409;SDS011;12543;53.364;-1.504;2022-12-29T09:37:37;6.65;;;1.40;;
24409;SDS011;12543;53.364;-1.504;2022-12-29T09:40:05;8.95;;;1.23;;
24409;SDS011;12543;53.364;-1.504;2022-12-29T09:48:29;10.15;;;1.50;;
24409;SDS011;12543;53.364;-1.504;2022-12-29T09:51:07;7.22;;;1.27;;
24409;SDS011;12543;53.364;-1.504;2022-12-29T09:53:40;7.70;;;1.45;;
24409;SDS011;12543;53.364;-1.504;2022-12-29T09:56:13;6.28;;;1.60;;
24409;SDS011;12543;53.364;-1.504;2022-12-29T09:58:47;11.18;;;1.63;;
24409;SDS011;12543;53.364;-1.504;2022-12-29T10:01:32;10.00;;;1.80;;
24409;SDS011;12543;53.364;-1.504;2022-12-29T10:04:05;10.07;;;2.08;;
24409;SDS011;12543;53.364;-1.504;2022-12-29T10:06:38;14.18;;;2.08;;
24409;SDS011;12543;53.364;-1.504;2022-12-29T10:09:58;9.45;;;1.88;;
24409;SDS011;12543;53.364;-1.504;2022-12-29T10:15:12;9.13;;;1.80;;
24409;SDS011;12543;53.364;-1.504;2022-12-29T10:18:00;12.70;;;2.13;;
24409;SDS011;12543;53.364;-1.504;2022-12-29T10:20:55;10.73;;;2.60;;
24409;SDS011;12543;53.364;-1.504;2022-12-29T10:25:57;10.02;;;1.80;;
24409;SDS011;12543;53.364;-1.504;2022-12-29T10:31:11;14.20;;;2.17;;
24409;SDS011;12543;53.364;-1.504;2022-12-29T10:33:51;10.05;;;1.85;;
24409;SDS011;12543;53.364;-1.504;2022-12-29T10:36:27;11.57;;;2.15;;
24409;SDS011;12543;53.364;-1.504;2022-12-29T10:39:02;13.75;;;1.83;;
24409;SDS011;12543;53.364;-1.504;2022-12-29T10:44:13;9.32;;;1.73;;
24409;SDS011;12543;53.364;-1.504;2022-12-29T10:46:44;9.98;;;1.83;;
24409;SDS011;12543;53.364;-1.504;2022-12-29T10:49:32;12.85;;;1.92;;
24409;SDS011;12543;53.364;-1.504;2022-12-29T10:52:06;10.93;;;2.03;;
24409;SDS011;12543;53.364;-1.504;2022-12-29T10:54:38;14.07;;;2.08;;
24409;SDS011;12543;53.364;-1.504;2022-12-29T10:57:32;11.98;;;2.20;;
24409;SDS011;12543;53.364;-1.504;2022-12-29T11:00:13;18.35;;;2.40;;
24409;SDS011;12543;53.364;-1.504;2022-12-29T11:08:41;9.52;;;2.10;;
24409;SDS011;12543;53.364;-1.504;2022-12-29T11:11:22;13.00;;;2.42;;
24409;SDS011;12543;53.364;-1.504;2022-12-29T11:14:12;14.60;;;2.10;;
24409;SDS011;12543;53.364;-1.504;2022-12-29T11:16:41;9.32;;;2.20;;
24409;SDS011;12543;53.364;-1.504;2022-12-29T11:19:20;11.85;;;2.47;;
24409;SDS011;12543;53.364;-1.504;2022-12-29T11:21:49;11.82;;;2.03;;
24409;SDS011;12543;53.364;-1.504;2022-12-29T11:24:21;12.15;;;2.17;;
24409;SDS011;12543;53.364;-1.504;2022-12-29T11:26:54;14.15;;;2.15;;
24409;SDS011;12543;53.364;-1.504;2022-12-29T11:29:39;11.02;;;2.10;;
24409;SDS011;12543;53.364;-1.504;2022-12-29T11:32:27;14.23;;;2.22;;
24409;SDS011;12543;53.364;-1.504;2022-12-29T11:34:58;12.13;;;2.42;;
24409;SDS011;12543;53.364;-1.504;2022-12-29T11:46:00;9.43;;;2.38;;
24409;SDS011;12543;53.364;-1.504;2022-12-29T11:48:38;15.40;;;2.60;;
24409;SDS011;12543;53.364;-1.504;2022-12-29T11:51:22;13.60;;;2.60;;
24409;SDS011;12543;53.364;-1.504;2022-12-29T11:53:55;15.60;;;2.40;;
24409;SDS011;12543;53.364;-1.504;2022-12-29T11:56:40;16.20;;;2.10;;
24409;SDS011;12543;53.364;-1.504;2022-12-29T12:02:02;23.67;;;3.03;;
24409;SDS011;12543;53.364;-1.504;2022-12-29T12:04:50;16.42;;;3.25;;
24409;SDS011;12543;53.364;-1.504;2022-12-29T12:07:24;14.93;;;2.72;;
24409;SDS011;12543;53.364;-1.504;2022-12-29T12:10:06;12.98;;;2.50;;
24409;SDS011;12543;53.364;-1.504;2022-12-29T12:12:58;14.70;;;2.47;;
24409;SDS011;12543;53.364;-1.504;2022-12-29T12:15:51;13.43;;;2.42;;
24409;SDS011;12543;53.364;-1.504;2022-12-29T12:29:22;14.05;;;2.83;;
24409;SDS011;12543;53.364;-1.504;2022-12-29T12:34:48;10.73;;;1.98;;
24409;SDS011;12543;53.364;-1.504;2022-12-29T12:40:05;12.52;;;2.53;;
24409;SDS011;12543;53.364;-1.504;2022-12-29T12:57:18;22.17;;;3.08;;
24409;SDS011;12543;53.364;-1.504;2022-12-29T12:59:52;17.02;;;2.90;;
24409;SDS011;12543;53.364;-1.504;2022-12-29T13:02:40;11.30;;;2.08;;
24409;SDS011;12543;53.364;-1.504;2022-12-29T13:10:48;10.68;;;2.40;;
24409;SDS011;12543;53.364;-1.504;2022-12-29T13:16:13;13.23;;;2.47;;
24409;SDS011;12543;53.364;-1.504;2022-12-29T13:30:00;13.93;;;2.72;;
24409;SDS011;12543;53.364;-1.504;2022-12-29T13:38:11;8.48;;;1.83;;
24409;SDS011;12543;53.364;-1.504;2022-12-29T13:40:49;8.18;;;1.90;;
24409;SDS011;12543;53.364;-1.504;2022-12-29T13:43:21;12.90;;;2.35;;
24409;SDS011;12543;53.364;-1.504;2022-12-29T13:45:55;9.85;;;2.25;;
24409;SDS011;12543;53.364;-1.504;2022-12-29T13:48:37;10.90;;;2.05;;
24409;SDS011;12543;53.364;-1.504;2022-12-29T13:51:06;12.73;;;2.33;;
24409;SDS011;12543;53.364;-1.504;2022-12-29T14:04:59;11.75;;;1.77;;
24409;SDS011;12543;53.364;-1.504;2022-12-29T14:07:28;8.95;;;2.28;;
24409;SDS011;12543;53.364;-1.504;2022-12-29T14:10:02;8.43;;;1.92;;
24409;SDS011;12543;53.364;-1.504;2022-12-29T14:17:43;13.63;;;2.40;;
24409;SDS011;12543;53.364;-1.504;2022-12-29T14:20:19;9.32;;;2.33;;
24409;SDS011;12543;53.364;-1.504;2022-12-29T14:23:50;10.38;;;1.92;;
24409;SDS011;12543;53.364;-1.504;2022-12-29T14:28:36;11.52;;;1.77;;
24409;SDS011;12543;53.364;-1.504;2022-12-29T14:31:38;13.93;;;1.65;;
24409;SDS011;12543;53.364;-1.504;2022-12-29T14:44:48;9.27;;;1.80;;
24409;SDS011;12543;53.364;-1.504;2022-12-29T14:49:54;7.20;;;1.38;;
24409;SDS011;12543;53.364;-1.504;2022-12-29T14:52:23;9.43;;;2.00;;
24409;SDS011;12543;53.364;-1.504;2022-12-29T14:57:48;4.55;;;1.58;;
24409;SDS011;12543;53.364;-1.504;2022-12-29T15:00:18;10.07;;;2.45;;
24409;SDS011;12543;53.364;-1.504;2022-12-29T15:05:41;8.35;;;1.33;;
24409;SDS011;12543;53.364;-1.504;2022-12-29T15:08:22;13.18;;;2.00;;
24409;SDS011;12543;53.364;-1.504;2022-12-29T15:10:54;12.63;;;1.98;;
24409;SDS011;12543;53.364;-1.504;2022-12-29T15:13:37;8.25;;;1.65;;
24409;SDS011;12543;53.364;-1.504;2022-12-29T15:16:20;7.95;;;1.70;;
24409;SDS011;12543;53.364;-1.504;2022-12-29T15:18:49;10.23;;;1.70;;
24409;SDS011;12543;53.364;-1.504;2022-12-29T15:21:16;8.63;;;2.05;;
24409;SDS011;12543;53.364;-1.504;2022-12-29T15:23:47;10.48;;;2.65;;
24409;SDS011;12543;53.364;-1.504;2022-12-29T15:26:15;11.48;;;1.75;;
24409;SDS011;12543;53.364;-1.504;2022-12-29T15:28:49;14.57;;;2.00;;
24409;SDS011;12543;53.364;-1.504;2022-12-29T15:34:01;9.90;;;1.90;;
24409;SDS011;12543;53.364;-1.504;2022-12-29T15:36:37;7.32;;;1.77;;
24409;SDS011;12543;53.364;-1.504;2022-12-29T15:42:09;8.50;;;1.70;;
24409;SDS011;12543;53.364;-1.504;2022-12-29T15:45:03;13.15;;;2.65;;
24409;SDS011;12543;53.364;-1.504;2022-12-29T15:47:37;13.82;;;2.10;;
24409;SDS011;12543;53.364;-1.504;2022-12-29T15:50:22;11.00;;;1.80;;
24409;SDS011;12543;53.364;-1.504;2022-12-29T15:52:55;11.95;;;2.17;;
24409;SDS011;12543;53.364;-1.504;2022-12-29T15:55:34;10.70;;;1.90;;
24409;SDS011;12543;53.364;-1.504;2022-12-29T15:58:04;8.65;;;2.47;;
24409;SDS011;12543;53.364;-1.504;2022-12-29T16:00:46;12.95;;;2.78;;
24409;SDS011;12543;53.364;-1.504;2022-12-29T16:03:20;10.98;;;2.15;;
24409;SDS011;12543;53.364;-1.504;2022-12-29T16:05:57;12.15;;;2.78;;
24409;SDS011;12543;53.364;-1.504;2022-12-29T16:08:45;6.13;;;1.60;;
24409;SDS011;12543;53.364;-1.504;2022-12-29T16:14:05;12.30;;;2.97;;
24409;SDS011;12543;53.364;-1.504;2022-12-29T16:16:36;10.38;;;1.80;;
24409;SDS011;12543;53.364;-1.504;2022-12-29T16:19:12;9.63;;;2.28;;
24409;SDS011;12543;53.364;-1.504;2022-12-29T16:21:42;14.77;;;2.70;;
24409;SDS011;12543;53.364;-1.504;2022-12-29T16:24:14;12.73;;;2.90;;
24409;SDS011;12543;53.364;-1.504;2022-12-29T16:26:48;12.35;;;2.65;;
24409;SDS011;12543;53.364;-1.504;2022-12-29T16:29:29;11.52;;;2.28;;
24409;SDS011;12543;53.364;-1.504;2022-12-29T16:31:57;14.25;;;3.00;;
24409;SDS011;12543;53.364;-1.504;2022-12-29T16:34:32;9.70;;;3.03;;
24409;SDS011;12543;53.364;-1.504;2022-12-29T16:42:55;10.45;;;3.42;;
24409;SDS011;12543;53.364;-1.504;2022-12-29T16:48:35;10.55;;;2.55;;
24409;SDS011;12543;53.364;-1.504;2022-12-29T16:51:13;10.07;;;2.67;;
24409;SDS011;12543;53.364;-1.504;2022-12-29T16:53:51;13.90;;;3.50;;
24409;SDS011;12543;53.364;-1.504;2022-12-29T16:56:21;8.40;;;3.00;;
24409;SDS011;12543;53.364;-1.504;2022-12-29T16:58:59;9.13;;;1.98;;
24409;SDS011;12543;53.364;-1.504;2022-12-29T17:01:34;7.45;;;2.00;;
24409;SDS011;12543;53.364;-1.504;2022-12-29T17:04:06;8.60;;;1.92;;
24409;SDS011;12543;53.364;-1.504;2022-12-29T17:06:36;6.75;;;2.15;;
24409;SDS011;12543;53.364;-1.504;2022-12-29T17:09:24;7.63;;;2.30;;
24409;SDS011;12543;53.364;-1.504;2022-12-29T17:11:59;12.35;;;2.10;;
24409;SDS011;12543;53.364;-1.504;2022-12-29T17:22:44;10.05;;;2.85;;
24409;SDS011;12543;53.364;-1.504;2022-12-29T17:25:13;9.32;;;2.60;;
24409;SDS011;12543;53.364;-1.504;2022-12-29T17:27:44;12.23;;;2.70;;
24409;SDS011;12543;53.364;-1.504;2022-12-29T17:30:22;12.10;;;2.30;;
24409;SDS011;12543;53.364;-1.504;2022-12-29T17:33:06;9.32;;;1.75;;
24409;SDS011;12543;53.364;-1.504;2022-12-29T17:35:38;8.55;;;2.35;;
24409;SDS011;12543;53.364;-1.504;2022-12-29T17:38:18;9.32;;;2.20;;
24409;SDS011;12543;53.364;-1.504;2022-12-29T17:40:47;7.97;;;2.38;;
24409;SDS011;12543;53.364;-1.504;2022-12-29T17:43:15;9.88;;;2.20;;
24409;SDS011;12543;53.364;-1.504;2022-12-29T17:45:43;9.68;;;2.47;;
24409;SDS011;12543;53.364;-1.504;2022-12-29T17:48:16;7.93;;;2.00;;
24409;SDS011;12543;53.364;-1.504;2022-12-29T17:50:47;6.55;;;2.33;;
24409;SDS011;12543;53.364;-1.504;2022-12-29T17:53:24;6.60;;;2.25;;
24409;SDS011;12543;53.364;-1.504;2022-12-29T17:55:54;8.00;;;2.55;;
24409;SDS011;12543;53.364;-1.504;2022-12-29T17:58:23;8.57;;;2.90;;
24409;SDS011;12543;53.364;-1.504;2022-12-29T18:00:56;7.45;;;2.58;;
24409;SDS011;12543;53.364;-1.504;2022-12-29T18:03:26;9.55;;;2.95;;
24409;SDS011;12543;53.364;-1.504;2022-12-29T18:05:54;6.30;;;2.67;;
24409;SDS011;12543;53.364;-1.504;2022-12-29T18:10:59;7.13;;;2.38;;
24409;SDS011;12543;53.364;-1.504;2022-12-29T18:13:28;10.50;;;3.25;;
24409;SDS011;12543;53.364;-1.504;2022-12-29T18:16:12;7.85;;;2.90;;
24409;SDS011;12543;53.364;-1.504;2022-12-29T18:18:43;7.45;;;2.40;;
24409;SDS011;12543;53.364;-1.504;2022-12-29T18:21:15;8.77;;;2.75;;
24409;SDS011;12543;53.364;-1.504;2022-12-29T18:23:45;5.05;;;2.28;;
24409;SDS011;12543;53.364;-1.504;2022-12-29T18:26:16;7.65;;;2.38;;